Time;durP1;ratioP1;P1;durP2;ratioP2;P2;SDS_P1;SDS_P2;PMS_P1;PMS_P2;Temp;Humidity;BMP_temperature;BMP_pressure;BME280_temperature;BME280_humidity;BME280_pressure;Samples;Min_cycle;Max_cycle;Signal;HPM_P1;HPM_P2
2022/10/24 00:02:02;;;;;;;1.20;1.10;;;17.00;68.90;;;;;;5054784;28;20226;-73
2022/10/24 00:04:27;;;;;;;1.10;0.98;;;17.00;68.90;;;;;;5054725;28;20662;-73
2022/10/24 00:06:53;;;;;;;1.38;1.20;;;16.90;68.80;;;;;;5054969;28;20186;-73
2022/10/24 00:09:18;;;;;;;1.25;1.15;;;17.00;68.90;;;;;;5054718;28;20171;-73
2022/10/24 00:11:44;;;;;;;1.23;1.02;;;17.00;68.90;;;;;;5054479;28;20168;-73
2022/10/24 00:14:09;;;;;;;1.10;1.10;;;17.00;69.00;;;;;;5054427;28;20223;-73
2022/10/24 00:16:35;;;;;;;1.45;1.08;;;16.90;68.80;;;;;;5054116;28;20171;-73
2022/10/24 00:19:00;;;;;;;1.30;1.20;;;17.00;68.90;;;;;;5053773;28;20171;-74
2022/10/24 00:21:26;;;;;;;1.10;1.10;;;17.00;68.90;;;;;;5055393;28;20267;-73
2022/10/24 00:23:51;;;;;;;1.85;1.05;;;17.00;68.90;;;;;;5054670;28;20626;-73
2022/10/24 00:26:17;;;;;;;1.42;1.33;;;17.00;68.90;;;;;;5053795;28;20267;-72
2022/10/24 00:28:42;;;;;;;1.30;1.20;;;16.90;68.80;;;;;;5054611;28;20213;-73
2022/10/24 00:31:11;;;;;;;1.23;1.15;;;17.00;68.90;;;;;;5053380;28;20213;-73
2022/10/24 00:33:37;;;;;;;1.20;1.10;;;16.90;68.80;;;;;;5053382;28;20211;-73
2022/10/24 00:36:03;;;;;;;0.90;0.90;;;16.90;68.80;;;;;;5054233;28;20214;-72
2022/10/24 00:38:28;;;;;;;0.90;0.90;;;16.90;68.80;;;;;;5053778;28;20199;-73
2022/10/24 00:40:54;;;;;;;1.35;1.20;;;16.90;68.80;;;;;;5054531;28;20566;-74
2022/10/24 00:43:23;;;;;;;1.35;1.25;;;16.90;68.90;;;;;;5053991;28;20550;-74
2022/10/24 00:45:53;;;;;;;2.20;1.42;;;16.90;68.90;;;;;;5053679;28;20233;-73
2022/10/24 00:48:37;;;;;;;1.10;1.00;;;16.90;68.90;;;;;;5053979;28;20175;-73
2022/10/24 00:51:23;;;;;;;1.10;1.00;;;16.90;68.80;;;;;;5053922;28;20203;-73
2022/10/24 00:53:50;;;;;;;1.02;0.95;;;16.90;68.90;;;;;;5052150;28;20584;-73
2022/10/24 00:56:16;;;;;;;1.95;1.08;;;16.90;68.90;;;;;;5036189;28;20240;-73
2022/10/24 00:58:42;;;;;;;1.13;1.08;;;16.90;68.80;;;;;;5052817;28;20175;-74
2022/10/24 01:01:08;;;;;;;1.13;1.08;;;16.90;68.80;;;;;;5051757;28;20219;-74
2022/10/24 01:03:33;;;;;;;0.82;0.82;;;16.90;68.90;;;;;;5053968;28;20175;-73
2022/10/24 01:06:31;;;;;;;2.17;1.00;;;16.90;68.90;;;;;;5053643;28;20175;-72
2022/10/24 01:09:37;;;;;;;1.48;1.17;;;16.90;68.90;;;;;;5052212;28;20576;-72
2022/10/24 01:12:08;;;;;;;1.25;1.10;;;16.90;68.90;;;;;;5052462;28;20186;-73
2022/10/24 01:14:53;;;;;;;1.02;1.02;;;16.90;68.90;;;;;;5052957;28;20215;-73
2022/10/24 01:17:33;;;;;;;1.35;1.20;;;16.90;68.90;;;;;;5049189;28;20286;-73
2022/10/24 01:20:38;;;;;;;1.10;1.00;;;16.90;68.90;;;;;;5053344;28;20211;-72
2022/10/24 01:23:31;;;;;;;1.27;1.08;;;16.90;68.80;;;;;;5048756;28;20183;-73
2022/10/24 01:26:09;;;;;;;1.45;1.35;;;16.90;68.90;;;;;;5052297;28;20179;-73
2022/10/24 01:28:38;;;;;;;1.70;1.30;;;16.90;68.90;;;;;;5050646;28;20183;-73
2022/10/24 01:31:11;;;;;;;1.33;0.98;;;16.90;68.90;;;;;;5052961;28;20301;-73
2022/10/24 01:33:46;;;;;;;1.55;1.27;;;16.90;68.90;;;;;;5035668;28;20175;-72
2022/10/24 01:36:18;;;;;;;1.40;1.23;;;16.90;68.90;;;;;;5035506;28;20266;-72
2022/10/24 01:38:51;;;;;;;1.15;1.05;;;16.90;68.90;;;;;;5052207;28;20225;-73
2022/10/24 01:41:19;;;;;;;2.10;1.40;;;16.90;68.90;;;;;;5051667;28;20199;-73
2022/10/24 01:43:51;;;;;;;0.82;0.82;;;16.90;68.90;;;;;;5034914;28;20638;-73
2022/10/24 01:46:28;;;;;;;1.55;1.20;;;16.90;69.00;;;;;;5051744;28;20357;-73
2022/10/24 01:49:14;;;;;;;1.02;1.02;;;16.90;68.90;;;;;;5034936;28;20179;-73
2022/10/24 01:51:40;;;;;;;1.67;1.10;;;16.90;69.00;;;;;;5053063;28;20590;-72
2022/10/24 01:54:06;;;;;;;1.48;0.88;;;16.90;68.90;;;;;;5034968;28;20262;-72
2022/10/24 01:56:32;;;;;;;1.77;1.08;;;16.90;69.00;;;;;;5051011;28;20179;-73
2022/10/24 01:59:29;;;;;;;1.08;0.90;;;16.90;69.70;;;;;;5052646;28;20164;-73
2022/10/24 02:02:05;;;;;;;1.17;1.05;;;16.90;68.90;;;;;;5050987;28;20187;-73
2022/10/24 02:04:31;;;;;;;1.65;0.88;;;16.90;69.00;;;;;;5052099;28;20182;-73
2022/10/24 02:06:56;;;;;;;1.05;1.05;;;16.90;69.00;;;;;;5051160;28;20171;-73
2022/10/24 02:09:23;;;;;;;1.10;1.10;;;16.90;69.00;;;;;;5051452;28;20791;-72
2022/10/24 02:11:49;;;;;;;1.15;1.05;;;16.90;69.00;;;;;;5034460;28;20171;-72
2022/10/24 02:14:25;;;;;;;1.13;1.08;;;16.90;69.00;;;;;;5034457;28;20227;-72
2022/10/24 02:16:50;;;;;;;1.67;1.20;;;16.90;69.00;;;;;;5050815;28;20182;-73
2022/10/24 02:19:16;;;;;;;1.10;1.00;;;16.80;68.90;;;;;;5051111;28;20210;-73
2022/10/24 02:21:49;;;;;;;1.48;1.38;;;16.90;69.00;;;;;;5051662;28;20181;-72
2022/10/24 02:24:21;;;;;;;0.95;0.95;;;16.90;69.00;;;;;;5050623;28;20315;-72
2022/10/24 02:26:51;;;;;;;1.00;1.00;;;16.90;68.90;;;;;;5035530;28;20179;-72
2022/10/24 02:29:18;;;;;;;1.48;1.27;;;16.90;69.00;;;;;;5035264;28;20596;-71
2022/10/24 02:31:49;;;;;;;1.13;1.05;;;16.90;69.00;;;;;;5034273;28;20558;-72
2022/10/24 02:34:14;;;;;;;1.13;1.02;;;16.90;69.00;;;;;;5051024;28;20179;-71
2022/10/24 02:36:41;;;;;;;2.83;1.50;;;16.90;69.00;;;;;;5051285;28;20179;-72
2022/10/24 02:39:07;;;;;;;2.65;1.25;;;16.90;69.00;;;;;;5050566;28;20175;-72
2022/10/24 02:41:33;;;;;;;1.48;1.10;;;16.90;69.00;;;;;;5055401;28;20186;-74
2022/10/24 02:43:59;;;;;;;1.23;1.10;;;16.80;68.90;;;;;;5056490;28;20174;-73
2022/10/24 02:46:27;;;;;;;1.90;1.08;;;16.80;68.90;;;;;;5038078;28;20186;-73
2022/10/24 02:48:56;;;;;;;1.55;1.45;;;16.80;68.90;;;;;;5055489;28;20167;-73
2022/10/24 02:51:22;;;;;;;1.65;1.10;;;16.90;69.00;;;;;;5039030;28;20257;-73
2022/10/24 02:53:49;;;;;;;1.30;1.20;;;16.90;69.00;;;;;;5037897;28;20625;-73
2022/10/24 02:56:15;;;;;;;0.90;0.90;;;16.90;69.00;;;;;;5054983;28;20256;-73
2022/10/24 02:58:40;;;;;;;2.35;1.42;;;16.90;69.00;;;;;;5038278;28;20633;-73
2022/10/24 03:01:06;;;;;;;1.25;1.20;;;16.80;68.90;;;;;;5053836;28;20203;-72
2022/10/24 03:03:31;;;;;;;1.38;1.10;;;16.80;68.90;;;;;;5056431;28;20175;-73
2022/10/24 03:06:00;;;;;;;1.45;1.30;;;16.90;69.10;;;;;;5055290;28;20187;-71
2022/10/24 03:08:25;;;;;;;1.38;0.90;;;16.90;69.00;;;;;;5055946;28;20191;-72
2022/10/24 03:10:51;;;;;;;1.38;1.15;;;16.80;69.00;;;;;;5056029;28;20206;-72
2022/10/24 03:13:16;;;;;;;1.88;0.90;;;16.80;69.00;;;;;;5054815;28;20238;-72
2022/10/24 03:15:42;;;;;;;2.00;1.30;;;16.90;69.20;;;;;;5055698;28;20764;-73
2022/10/24 03:18:07;;;;;;;1.30;1.20;;;16.80;69.00;;;;;;5055535;28;20657;-72
2022/10/24 03:20:33;;;;;;;1.40;1.30;;;16.80;69.00;;;;;;5054910;28;20213;-73
2022/10/24 03:22:59;;;;;;;1.42;1.15;;;16.80;69.90;;;;;;5055401;28;20171;-73
2022/10/24 03:25:24;;;;;;;0.95;0.95;;;16.80;69.00;;;;;;5055857;28;20175;-72
2022/10/24 03:27:50;;;;;;;1.63;1.38;;;16.80;69.00;;;;;;5054910;28;20261;-72
2022/10/24 03:30:15;;;;;;;1.27;1.00;;;16.80;69.00;;;;;;5055279;28;20614;-71
2022/10/24 03:32:41;;;;;;;2.08;1.10;;;16.80;69.00;;;;;;5054423;28;20173;-72
2022/10/24 03:35:06;;;;;;;1.13;1.02;;;16.80;69.00;;;;;;5055007;28;20258;-72
2022/10/24 03:37:32;;;;;;;0.90;0.90;;;16.80;69.00;;;;;;5055700;28;20590;-72
2022/10/24 03:39:58;;;;;;;1.20;1.10;;;16.80;69.00;;;;;;5055198;28;20288;-73
2022/10/24 03:42:23;;;;;;;1.17;1.05;;;16.80;69.00;;;;;;5054576;28;20254;-73
2022/10/24 03:44:49;;;;;;;1.08;1.05;;;16.80;69.00;;;;;;5055368;28;20175;-72
2022/10/24 03:47:14;;;;;;;1.67;1.05;;;16.80;69.00;;;;;;5054943;28;20540;-72
2022/10/24 03:49:40;;;;;;;1.05;1.00;;;16.80;69.00;;;;;;5054772;28;20183;-72
2022/10/24 03:52:05;;;;;;;1.20;1.10;;;16.80;69.00;;;;;;5053917;28;20217;-73
2022/10/24 03:54:31;;;;;;;1.05;0.95;;;16.80;69.90;;;;;;5055272;28;20578;-72
2022/10/24 03:56:56;;;;;;;1.20;1.10;;;16.80;69.00;;;;;;5054292;28;20645;-72
2022/10/24 03:59:22;;;;;;;1.40;1.30;;;16.80;69.00;;;;;;5054784;28;20205;-73
2022/10/24 04:01:47;;;;;;;1.45;1.00;;;16.80;69.10;;;;;;5054969;28;20175;-73
2022/10/24 04:04:13;;;;;;;0.93;0.93;;;16.80;69.00;;;;;;5053794;28;20174;-72
2022/10/24 04:06:39;;;;;;;1.25;0.90;;;16.80;69.10;;;;;;5054640;28;20217;-72
2022/10/24 04:09:05;;;;;;;0.80;0.80;;;16.80;69.10;;;;;;5054343;28;20178;-72
2022/10/24 04:11:30;;;;;;;1.35;1.20;;;16.80;69.10;;;;;;5054182;28;20639;-73
2022/10/24 04:13:56;;;;;;;1.30;1.20;;;16.80;70.00;;;;;;5054468;28;20345;-73
2022/10/24 04:16:22;;;;;;;1.23;1.00;;;16.80;69.10;;;;;;5053853;28;20259;-73
2022/10/24 04:18:49;;;;;;;0.90;0.90;;;16.80;69.10;;;;;;5054851;28;20618;-73
2022/10/24 04:21:14;;;;;;;1.17;1.08;;;16.80;69.10;;;;;;5054228;28;20207;-73
2022/10/24 04:23:41;;;;;;;1.58;1.13;;;16.80;69.10;;;;;;5054004;28;20546;-73
2022/10/24 04:26:07;;;;;;;1.30;1.20;;;16.80;69.00;;;;;;5054378;28;20179;-72
2022/10/24 04:28:33;;;;;;;1.38;1.17;;;16.80;69.00;;;;;;5054707;28;20175;-72
2022/10/24 04:30:58;;;;;;;1.05;1.05;;;16.80;69.00;;;;;;5053802;28;20535;-71
2022/10/24 04:33:24;;;;;;;2.05;1.13;;;16.80;69.00;;;;;;5054376;28;20614;-71
2022/10/24 04:35:50;;;;;;;1.30;1.20;;;16.80;69.10;;;;;;5054481;28;20179;-73
2022/10/24 04:38:15;;;;;;;1.40;1.30;;;16.80;69.10;;;;;;5053258;28;20738;-72
2022/10/24 04:40:45;;;;;;;2.05;1.45;;;16.80;69.10;;;;;;5054343;28;20210;-73
2022/10/24 04:43:10;;;;;;;1.95;1.30;;;16.80;69.10;;;;;;5053909;28;20175;-73
2022/10/24 04:45:36;;;;;;;1.88;1.10;;;16.80;69.00;;;;;;5053759;28;20190;-73
2022/10/24 04:48:01;;;;;;;2.25;1.30;;;16.80;69.90;;;;;;5054092;28;20178;-73
2022/10/24 04:50:27;;;;;;;1.20;1.10;;;16.80;69.10;;;;;;5054278;28;20178;-72
2022/10/24 04:52:52;;;;;;;1.20;1.10;;;16.80;69.10;;;;;;5053707;28;20167;-73
2022/10/24 04:55:18;;;;;;;1.80;1.30;;;16.80;69.10;;;;;;5053778;28;20179;-73
2022/10/24 04:57:43;;;;;;;1.35;0.90;;;16.80;69.10;;;;;;5053827;28;20182;-73
2022/10/24 05:00:09;;;;;;;1.88;1.23;;;16.80;69.10;;;;;;5053065;28;20214;-72
2022/10/24 05:02:35;;;;;;;1.30;1.08;;;16.80;69.10;;;;;;5053631;28;20201;-73
2022/10/24 05:05:00;;;;;;;1.20;1.00;;;16.80;69.10;;;;;;5053758;28;20266;-73
2022/10/24 05:07:26;;;;;;;1.40;1.10;;;16.80;69.10;;;;;;5053080;28;20224;-73
2022/10/24 05:09:51;;;;;;;2.47;1.02;;;16.80;69.10;;;;;;5053660;28;20549;-71
2022/10/24 05:12:17;;;;;;;1.38;1.00;;;16.80;69.10;;;;;;5053014;28;20183;-72
2022/10/24 05:14:45;;;;;;;1.17;1.08;;;16.80;69.10;;;;;;5053270;28;20194;-73
2022/10/24 05:17:12;;;;;;;2.53;1.00;;;16.80;69.10;;;;;;5053524;28;20179;-73
2022/10/24 05:19:37;;;;;;;1.60;1.25;;;16.80;69.10;;;;;;5052715;28;20576;-73
2022/10/24 05:22:03;;;;;;;2.13;1.08;;;16.80;69.10;;;;;;5053250;28;20183;-72
2022/10/24 05:24:28;;;;;;;2.20;1.00;;;16.80;69.10;;;;;;5053294;28;20183;-72
2022/10/24 05:26:54;;;;;;;1.75;1.00;;;16.80;69.10;;;;;;5052575;28;20228;-72
2022/10/24 05:29:20;;;;;;;1.13;1.02;;;16.80;69.10;;;;;;5053221;28;20519;-72
2022/10/24 05:31:45;;;;;;;1.30;1.20;;;16.70;69.10;;;;;;5053531;28;20175;-71
2022/10/24 05:34:11;;;;;;;1.42;1.25;;;16.80;69.10;;;;;;5052383;28;20225;-71
2022/10/24 05:36:36;;;;;;;1.08;0.98;;;16.80;69.10;;;;;;5053211;28;20176;-72
2022/10/24 05:39:02;;;;;;;1.90;1.17;;;16.80;69.10;;;;;;5052828;28;20183;-72
2022/10/24 05:41:27;;;;;;;1.05;0.95;;;16.80;69.20;;;;;;5052530;28;20187;-73
2022/10/24 05:43:53;;;;;;;1.25;1.15;;;16.80;69.30;;;;;;5053383;28;20167;-73
2022/10/24 05:46:18;;;;;;;1.10;1.00;;;16.80;69.10;;;;;;5052804;28;20175;-72
2022/10/24 05:48:44;;;;;;;1.00;0.93;;;16.80;69.20;;;;;;5052606;28;20617;-72
2022/10/24 05:51:10;;;;;;;1.00;1.00;;;16.80;69.20;;;;;;5052826;28;20544;-72
2022/10/24 05:53:35;;;;;;;1.73;1.30;;;16.80;69.20;;;;;;5053034;28;20183;-73
2022/10/24 05:56:01;;;;;;;1.30;0.90;;;16.80;69.20;;;;;;5052081;28;20171;-72
2022/10/24 05:58:26;;;;;;;1.08;0.90;;;16.80;69.10;;;;;;5052993;28;20175;-72
2022/10/24 06:00:52;;;;;;;2.53;1.00;;;16.80;69.30;;;;;;5053229;28;20302;-73
2022/10/24 06:03:17;;;;;;;1.08;1.05;;;16.80;69.20;;;;;;5052116;28;20554;-72
2022/10/24 06:05:43;;;;;;;1.02;0.93;;;16.80;69.30;;;;;;5053141;28;20210;-72
2022/10/24 06:08:08;;;;;;;1.40;1.00;;;16.80;70.00;;;;;;5052660;28;20262;-71
2022/10/24 06:10:34;;;;;;;2.03;1.10;;;16.80;69.20;;;;;;5051985;28;20703;-72
2022/10/24 06:12:59;;;;;;;2.40;1.10;;;16.80;69.20;;;;;;5052348;28;20215;-72
2022/10/24 06:15:25;;;;;;;1.77;1.10;;;16.80;69.20;;;;;;5052123;28;20708;-72
2022/10/24 06:17:50;;;;;;;2.33;1.35;;;16.80;69.20;;;;;;5052053;28;20262;-73
2022/10/24 06:20:16;;;;;;;2.38;1.00;;;16.80;69.30;;;;;;5052403;28;20345;-72
2022/10/24 06:22:44;;;;;;;1.27;0.98;;;16.80;69.30;;;;;;5052760;28;20224;-72
2022/10/24 06:25:11;;;;;;;1.30;1.10;;;16.80;69.20;;;;;;5052437;28;20194;-72
2022/10/24 06:27:36;;;;;;;1.30;1.20;;;16.80;69.30;;;;;;5052931;28;20198;-72
2022/10/24 06:30:02;;;;;;;1.15;1.05;;;16.80;69.20;;;;;;5051694;28;20642;-71
2022/10/24 06:32:28;;;;;;;1.00;1.00;;;16.80;69.30;;;;;;5051548;28;20178;-71
2022/10/24 06:34:53;;;;;;;1.67;0.90;;;16.80;69.30;;;;;;5052785;28;20171;-72
2022/10/24 06:37:19;;;;;;;1.27;1.17;;;16.80;69.30;;;;;;5051760;28;20171;-72
2022/10/24 06:39:44;;;;;;;2.35;1.27;;;16.80;69.40;;;;;;5052304;28;20211;-73
2022/10/24 06:42:10;;;;;;;1.25;1.00;;;16.80;69.50;;;;;;5052560;28;20175;-73
2022/10/24 06:44:37;;;;;;;1.13;1.02;;;16.90;69.40;;;;;;5052062;28;20576;-73
2022/10/24 06:47:03;;;;;;;1.80;1.00;;;17.00;69.30;;;;;;5052205;28;20175;-69
2022/10/24 06:49:28;;;;;;;1.08;0.80;;;17.10;69.00;;;;;;5052733;28;20250;-68
2022/10/24 06:51:54;;;;;;;1.85;1.42;;;17.30;69.10;;;;;;5051971;28;20665;-68
2022/10/24 06:54:19;;;;;;;1.95;1.02;;;17.40;69.00;;;;;;5052284;28;20608;-72
2022/10/24 06:56:45;;;;;;;3.03;1.58;;;17.50;68.70;;;;;;5052570;28;20211;-70
2022/10/24 06:59:12;;;;;;;1.92;1.25;;;17.60;68.50;;;;;;5051400;28;20597;-70
2022/10/24 07:01:38;;;;;;;5.20;1.40;;;17.70;68.30;;;;;;5052594;28;20179;-70
2022/10/24 07:04:04;;;;;;;6.57;1.20;;;17.90;68.00;;;;;;5052158;28;20540;-69
2022/10/24 07:06:29;;;;;;;2.65;1.10;;;18.00;67.90;;;;;;5051743;28;20171;-69
2022/10/24 07:08:56;;;;;;;5.22;1.45;;;18.10;67.50;;;;;;5052334;28;20182;-69
2022/10/24 07:11:22;;;;;;;3.15;1.25;;;18.10;67.30;;;;;;5052540;28;20188;-70
2022/10/24 07:13:48;;;;;;;4.22;1.20;;;18.20;67.00;;;;;;5051626;28;20245;-71
2022/10/24 07:16:13;;;;;;;4.35;1.50;;;18.20;67.00;;;;;;5052052;28;20175;-70
2022/10/24 07:18:39;;;;;;;3.63;1.40;;;18.20;66.80;;;;;;5052434;28;20168;-71
2022/10/24 07:21:13;;;;;;;7.38;1.50;;;18.20;66.70;;;;;;5051333;28;20642;-69
2022/10/24 07:23:38;;;;;;;4.38;1.63;;;18.20;66.80;;;;;;5052110;28;20183;-71
2022/10/24 07:26:06;;;;;;;3.28;1.55;;;18.20;67.00;;;;;;5052478;28;20201;-71
2022/10/24 07:28:32;;;;;;;4.63;1.58;;;18.20;66.90;;;;;;5056105;28;20238;-69
2022/10/24 07:30:57;;;;;;;6.82;1.98;;;18.20;66.90;;;;;;5055726;28;20179;-68
2022/10/24 07:33:23;;;;;;;3.88;1.45;;;18.10;66.70;;;;;;5055340;28;20182;-68
2022/10/24 07:35:48;;;;;;;3.40;1.33;;;18.10;67.00;;;;;;5055825;28;20514;-68
2022/10/24 07:38:14;;;;;;;4.05;1.38;;;18.10;67.20;;;;;;5055409;28;20254;-69
2022/10/24 07:40:39;;;;;;;3.67;1.33;;;18.00;67.10;;;;;;5054935;28;20600;-70
2022/10/24 07:43:05;;;;;;;5.82;1.27;;;18.00;67.30;;;;;;5055395;28;20216;-70
2022/10/24 07:45:31;;;;;;;6.88;1.88;;;18.00;67.60;;;;;;5055822;28;20262;-70
2022/10/24 07:47:58;;;;;;;2.95;1.15;;;18.00;67.50;;;;;;5054901;28;20171;-70
2022/10/24 07:50:23;;;;;;;3.15;1.60;;;18.00;67.40;;;;;;5055492;28;20187;-70
2022/10/24 07:52:49;;;;;;;6.00;1.30;;;17.90;67.40;;;;;;5055476;28;20175;-70
2022/10/24 07:55:14;;;;;;;2.78;1.58;;;17.90;67.50;;;;;;5054382;28;20198;-70
2022/10/24 07:57:40;;;;;;;2.40;1.40;;;17.90;67.50;;;;;;5055584;28;20265;-70
2022/10/24 08:00:06;;;;;;;3.38;1.55;;;17.90;67.50;;;;;;5055190;28;20298;-69
2022/10/24 08:02:32;;;;;;;4.75;1.35;;;18.00;67.70;;;;;;5054532;28;20178;-69
2022/10/24 08:04:57;;;;;;;4.38;1.67;;;18.00;67.70;;;;;;5055089;28;20175;-69
2022/10/24 08:07:23;;;;;;;5.35;1.67;;;17.90;67.80;;;;;;5055335;28;20178;-69
2022/10/24 08:09:50;;;;;;;2.17;1.10;;;17.90;68.00;;;;;;5054640;28;20178;-69
2022/10/24 08:12:15;;;;;;;4.90;2.05;;;17.80;68.00;;;;;;5054882;28;20202;-68
2022/10/24 08:14:41;;;;;;;3.10;1.52;;;17.80;68.30;;;;;;5055366;28;20629;-69
2022/10/24 08:17:06;;;;;;;1.77;1.13;;;17.70;68.30;;;;;;5054212;28;20193;-69
2022/10/24 08:19:32;;;;;;;5.03;1.60;;;17.80;68.30;;;;;;5054929;28;20306;-69
2022/10/24 08:21:57;;;;;;;2.80;1.40;;;17.80;68.50;;;;;;5054494;28;20229;-70
2022/10/24 08:24:23;;;;;;;3.13;1.38;;;17.80;68.50;;;;;;5053958;28;20258;-69
2022/10/24 08:26:49;;;;;;;4.53;1.08;;;17.80;68.60;;;;;;5054841;28;20265;-69
2022/10/24 08:29:20;;;;;;;2.08;1.10;;;17.90;68.60;;;;;;5054756;28;20559;-68
2022/10/24 08:31:48;;;;;;;4.10;1.27;;;17.80;68.60;;;;;;5054828;28;20201;-68
2022/10/24 08:34:15;;;;;;;2.17;1.35;;;17.80;68.70;;;;;;5054253;28;20194;-69
2022/10/24 08:36:41;;;;;;;2.28;1.40;;;17.80;68.70;;;;;;5054179;28;20194;-70
2022/10/24 08:39:06;;;;;;;2.88;1.70;;;17.80;68.80;;;;;;5053795;28;20171;-69
2022/10/24 08:41:42;;;;;;;2.83;1.65;;;17.80;68.70;;;;;;5054765;28;20233;-69
2022/10/24 08:44:26;;;;;;;3.10;0.95;;;17.90;68.60;;;;;;5053701;28;20200;-70
2022/10/24 08:46:52;;;;;;;3.45;1.40;;;18.00;68.50;;;;;;5053336;28;20179;-70
2022/10/24 08:49:23;;;;;;;2.35;1.10;;;18.00;68.30;;;;;;5052893;28;20218;-69
2022/10/24 08:51:59;;;;;;;3.25;1.10;;;18.00;68.30;;;;;;5053836;28;20175;-70
2022/10/24 08:54:28;;;;;;;2.70;1.23;;;18.00;68.30;;;;;;5053269;28;20175;-70
2022/10/24 08:56:54;;;;;;;1.58;1.17;;;18.10;68.30;;;;;;5037004;28;20183;-70
2022/10/24 08:59:20;;;;;;;3.72;1.25;;;18.10;68.30;;;;;;5053103;28;20179;-70
2022/10/24 09:02:19;;;;;;;2.08;1.30;;;18.20;68.30;;;;;;5053005;28;20246;-69
2022/10/24 09:05:04;;;;;;;2.03;1.70;;;18.20;68.20;;;;;;5048482;28;20266;-68
2022/10/24 09:07:30;;;;;;;2.25;1.38;;;18.20;68.20;;;;;;5053192;28;20179;-68
2022/10/24 09:10:19;;;;;;;3.53;1.30;;;18.20;68.20;;;;;;5052826;28;20233;-69
2022/10/24 09:12:45;;;;;;;3.67;1.40;;;18.20;68.30;;;;;;5036861;28;20219;-69
2022/10/24 09:15:23;;;;;;;3.22;1.45;;;18.20;68.30;;;;;;5053807;28;20175;-69
2022/10/24 09:17:48;;;;;;;4.45;1.20;;;18.10;68.30;;;;;;5052718;28;20655;-70
2022/10/24 09:20:32;;;;;;;1.73;1.00;;;18.20;68.50;;;;;;5051479;28;20293;-70
2022/10/24 09:22:59;;;;;;;2.08;1.35;;;18.10;68.60;;;;;;5053447;28;20533;-69
2022/10/24 09:25:35;;;;;;;2.45;1.27;;;18.10;68.70;;;;;;5036259;28;20262;-69
2022/10/24 09:28:01;;;;;;;2.65;1.27;;;18.10;68.80;;;;;;5051944;28;20183;-69
2022/10/24 09:30:27;;;;;;;3.75;1.10;;;18.20;68.70;;;;;;5052381;28;20564;-69
2022/10/24 09:32:53;;;;;;;1.90;1.00;;;18.20;68.50;;;;;;5052972;28;20217;-69
2022/10/24 09:35:21;;;;;;;2.42;1.60;;;18.30;68.40;;;;;;5035801;28;20186;-69
2022/10/24 09:38:09;;;;;;;4.13;1.60;;;18.30;68.50;;;;;;5053661;28;20555;-69
2022/10/24 09:40:35;;;;;;;2.88;1.10;;;18.30;68.50;;;;;;5052512;28;20218;-70
2022/10/24 09:43:14;;;;;;;1.40;1.27;;;18.30;68.40;;;;;;5035521;28;20558;-70
2022/10/24 09:45:44;;;;;;;3.88;1.38;;;18.40;68.40;;;;;;5052417;28;20262;-70
2022/10/24 09:48:24;;;;;;;1.25;1.10;;;18.40;68.40;;;;;;5052783;28;20178;-69
2022/10/24 09:50:50;;;;;;;2.70;1.05;;;18.40;68.40;;;;;;5035088;28;20277;-70
2022/10/24 09:53:37;;;;;;;2.08;1.10;;;18.30;68.40;;;;;;5053078;28;20536;-70
2022/10/24 09:56:11;;;;;;;2.40;1.30;;;18.40;68.30;;;;;;5051118;28;20652;-70
2022/10/24 09:58:36;;;;;;;1.60;1.05;;;18.40;68.40;;;;;;5053417;28;20207;-69
2022/10/24 10:01:15;;;;;;;2.63;0.90;;;18.30;68.40;;;;;;5052172;28;20253;-69
2022/10/24 10:03:40;;;;;;;2.65;1.17;;;18.30;68.60;;;;;;5053197;28;20167;-69
2022/10/24 10:06:17;;;;;;;2.83;1.40;;;18.20;68.70;;;;;;5052692;28;20646;-68
2022/10/24 10:08:48;;;;;;;3.50;1.23;;;18.10;68.80;;;;;;5052618;28;20193;-68
2022/10/24 10:11:14;;;;;;;3.60;1.30;;;18.10;69.00;;;;;;5052882;28;20209;-69
2022/10/24 10:13:44;;;;;;;1.17;0.85;;;18.10;69.10;;;;;;5051636;28;20652;-69
2022/10/24 10:16:24;;;;;;;2.42;1.05;;;18.10;69.30;;;;;;5051950;28;20175;-69
2022/10/24 10:18:49;;;;;;;1.90;1.10;;;18.00;69.30;;;;;;5051993;28;20167;-69
2022/10/24 10:21:19;;;;;;;2.10;1.05;;;18.00;69.40;;;;;;5052631;28;20238;-69
2022/10/24 10:23:48;;;;;;;3.90;1.40;;;18.00;70.10;;;;;;5052198;28;20195;-69
2022/10/24 10:26:20;;;;;;;3.60;1.35;;;18.00;69.10;;;;;;5052446;28;20262;-69
2022/10/24 10:28:51;;;;;;;2.17;1.00;;;18.00;69.10;;;;;;5052736;28;20236;-69
2022/10/24 10:31:19;;;;;;;2.60;0.95;;;18.00;69.00;;;;;;5051863;28;20199;-69
2022/10/24 10:34:00;;;;;;;2.88;1.30;;;18.10;69.00;;;;;;5035315;28;20183;-69
2022/10/24 10:36:36;;;;;;;1.55;0.95;;;18.10;68.90;;;;;;5035984;28;20697;-69
2022/10/24 10:39:13;;;;;;;2.42;0.70;;;18.00;68.70;;;;;;5035278;28;20179;-69
2022/10/24 10:41:44;;;;;;;2.33;1.00;;;18.00;68.80;;;;;;5052875;28;20236;-70
2022/10/24 10:44:34;;;;;;;2.33;1.33;;;18.00;68.80;;;;;;5050773;28;20182;-70
2022/10/24 10:47:34;;;;;;;1.75;1.20;;;18.00;68.90;;;;;;5051541;28;20178;-70
2022/10/24 10:49:59;;;;;;;3.10;1.33;;;18.00;68.80;;;;;;5036086;28;20168;-70
2022/10/24 10:52:38;;;;;;;3.58;1.42;;;18.00;68.70;;;;;;5051333;28;20292;-70
2022/10/24 10:55:24;;;;;;;2.78;0.85;;;18.00;68.70;;;;;;5035384;28;20179;-70
2022/10/24 10:58:18;;;;;;;2.80;1.02;;;18.10;68.70;;;;;;5035416;28;20167;-70
2022/10/24 11:01:08;;;;;;;3.97;1.40;;;18.10;68.70;;;;;;5052128;28;20215;-69
2022/10/24 11:03:47;;;;;;;5.00;1.35;;;18.10;68.70;;;;;;5055462;28;20187;-68
2022/10/24 11:06:31;;;;;;;5.07;0.93;;;18.10;68.70;;;;;;5054471;28;20186;-69
2022/10/24 11:09:11;;;;;;;5.10;1.35;;;18.10;68.40;;;;;;5055315;28;20185;-71
2022/10/24 11:11:40;;;;;;;5.90;1.35;;;18.10;68.60;;;;;;5055459;28;20201;-72
2022/10/24 11:14:14;;;;;;;7.63;1.80;;;18.10;68.80;;;;;;5038222;28;20279;-71
2022/10/24 11:16:39;;;;;;;3.22;1.30;;;18.10;69.10;;;;;;5054984;28;20584;-71
2022/10/24 11:19:25;;;;;;;3.28;1.08;;;18.10;68.70;;;;;;5053901;28;20171;-71
2022/10/24 11:21:51;;;;;;;3.75;1.38;;;18.00;68.60;;;;;;5040300;28;20199;-72
2022/10/24 11:24:19;;;;;;;1.45;1.00;;;18.10;68.80;;;;;;5055953;28;20257;-72
2022/10/24 11:26:51;;;;;;;7.03;1.65;;;18.10;68.80;;;;;;5037858;28;20179;-73
2022/10/24 11:29:28;;;;;;;5.13;1.35;;;18.10;68.80;;;;;;5055803;28;20221;-70
2022/10/24 11:32:01;;;;;;;3.58;1.13;;;18.10;68.70;;;;;;5038959;28;20265;-74
2022/10/24 11:34:34;;;;;;;1.45;0.90;;;18.10;68.70;;;;;;5055417;28;20178;-70
2022/10/24 11:37:06;;;;;;;2.92;1.17;;;18.10;68.80;;;;;;5054610;28;20249;-71
2022/10/24 11:39:50;;;;;;;4.70;0.98;;;18.10;68.70;;;;;;5055717;28;20538;-71
2022/10/24 11:42:36;;;;;;;2.83;0.75;;;18.10;68.80;;;;;;5037983;28;20532;-71
2022/10/24 11:45:21;;;;;;;3.60;1.23;;;18.00;68.80;;;;;;5055163;28;20175;-72
2022/10/24 11:47:56;;;;;;;4.55;1.38;;;18.00;68.80;;;;;;5053790;28;20225;-73
2022/10/24 11:50:47;;;;;;;6.22;1.40;;;18.10;69.00;;;;;;5055240;28;20182;-71
2022/10/24 11:53:30;;;;;;;6.50;1.80;;;18.10;69.00;;;;;;5055329;28;20194;-72
2022/10/24 11:56:25;;;;;;;8.60;1.48;;;18.10;69.00;;;;;;5055455;28;20179;-71
2022/10/24 11:59:01;;;;;;;3.40;1.20;;;18.10;69.00;;;;;;5055593;28;20258;-71
2022/10/24 12:01:51;;;;;;;3.70;1.20;;;18.10;69.10;;;;;;5053540;28;20242;-72
2022/10/24 12:04:27;;;;;;;5.50;1.77;;;18.10;69.20;;;;;;5055018;28;20576;-70
2022/10/24 12:07:01;;;;;;;4.20;1.20;;;18.00;69.20;;;;;;5038440;28;20220;-71
2022/10/24 12:09:30;;;;;;;4.05;1.40;;;18.10;69.30;;;;;;5054661;28;20177;-70
2022/10/24 12:12:15;;;;;;;4.38;1.42;;;18.00;69.30;;;;;;5054755;28;20293;-72
2022/10/24 12:14:44;;;;;;;4.22;1.58;;;18.00;69.20;;;;;;5037598;28;20277;-71
2022/10/24 12:17:33;;;;;;;1.63;1.15;;;18.10;69.20;;;;;;5053736;28;20636;-71
2022/10/24 12:20:00;;;;;;;3.22;1.00;;;18.10;69.10;;;;;;5053671;28;20302;-71
2022/10/24 12:22:36;;;;;;;2.72;1.15;;;18.00;68.90;;;;;;5036399;28;20262;-71
2022/10/24 12:25:16;;;;;;;5.90;1.33;;;18.10;69.00;;;;;;5037837;28;20661;-71
2022/10/24 12:27:42;;;;;;;3.45;0.95;;;18.10;69.00;;;;;;5054810;28;20688;-70
2022/10/24 12:30:16;;;;;;;3.97;1.65;;;18.00;68.90;;;;;;5054024;28;20208;-68
2022/10/24 12:32:49;;;;;;;5.18;1.50;;;18.10;69.10;;;;;;5054978;28;20229;-70
2022/10/24 12:35:30;;;;;;;2.67;1.10;;;18.10;69.10;;;;;;5053554;28;20198;-71
2022/10/24 12:37:56;;;;;;;4.43;1.30;;;18.10;69.00;;;;;;5054363;28;20182;-71
2022/10/24 12:40:48;;;;;;;3.85;1.20;;;18.10;69.00;;;;;;5053589;28;20211;-72
2022/10/24 12:43:30;;;;;;;3.83;1.45;;;18.00;69.00;;;;;;5053658;28;20179;-72
2022/10/24 12:45:59;;;;;;;2.00;1.20;;;18.00;68.90;;;;;;5054633;28;20228;-71
2022/10/24 12:48:32;;;;;;;5.85;1.35;;;18.10;69.00;;;;;;5054431;28;20537;-71
2022/10/24 12:50:57;;;;;;;2.25;0.95;;;18.00;68.90;;;;;;5053658;28;20229;-71
2022/10/24 12:53:59;;;;;;;4.28;1.20;;;18.00;69.00;;;;;;5054498;28;20633;-71
2022/10/24 12:56:25;;;;;;;3.13;1.33;;;18.00;69.10;;;;;;5054332;28;20236;-68
2022/10/24 12:58:57;;;;;;;4.22;1.10;;;18.00;69.10;;;;;;5052435;28;20693;-69
2022/10/24 13:01:24;;;;;;;3.25;1.45;;;18.00;69.40;;;;;;5054030;28;20210;-69
2022/10/24 13:03:51;;;;;;;3.10;1.10;;;18.00;69.50;;;;;;5053374;28;20285;-68